KFTW

Fort Worth Meacham International Airport

Fort Worth, Texas, USA
KFTW 142059Z 1421/1518 34017G27KT P6SM VCSH OVC015 FM150100 33017KT P6SM BKN025 FM150600 33013KT P6SM SKC
Issued Valid From Valid To
Dec-14 @ 20:59 UTC
(2 hours ago)
Dec-14 @ 21:00 UTC
(2 hours ago)
Dec-15 @ 18:00 UTC
(in 19 hours)
Dec-14 @ 21:00 to Dec-15 @ 01:00
KFTW 142059Z 1421/1518 34017G27KT P6SM VCSH OVC015
Wind Visibility Clouds
340° at 17 knots
 Gusting to 27 knots
Greater than 6 miles
  • Overcast at 1,500' AGL
From Dec-15 @ 01:00 to Dec-15 @ 06:00
FM150100 33017KT P6SM BKN025
Wind Visibility Clouds
330° at 17 knots Greater than 6 miles
  • Broken at 2,500' AGL
From Dec-15 @ 06:00 to Dec-15 @ 18:00
FM150600 33013KT P6SM SKC
Wind Visibility Clouds
330° at 13 knots Greater than 6 miles
  • Clear skies
KFTW 142059Z 1421/1518 34017G27KT P6SM VCSH OVC015 FM150100 33017KT P6SM BKN025 FM150600 33013KT P6SM SKC
Issued Dec-14 @ 20:59 UTC
(2 hours ago)
Valid From Dec-14 @ 21:00 UTC
(2 hours ago)
Valid To Dec-15 @ 18:00 UTC
(in 19 hours)
Dec-14 @ 21:00 - Dec-15 @ 01:00
Wind Visibility
340° at 17 knots
 Gusting to 27 knots
Greater than 6 miles
Clouds
  • Overcast at 1,500' AGL
From Dec-15 @ 01:00 - Dec-15 @ 06:00
Wind Visibility
330° at 17 knots Greater than 6 miles
Clouds
  • Broken at 2,500' AGL
From Dec-15 @ 06:00 - Dec-15 @ 18:00
Wind Visibility
330° at 13 knots Greater than 6 miles
Clouds
  • Clear skies